sensor_id;sensor_type;location;lat;lon;timestamp;temperature;humidity
2651;DHT22;1335;48.180;16.342;2022-07-04T00:00:09;20.30;99.90
2651;DHT22;1335;48.180;16.342;2022-07-04T00:02:39;20.20;99.90
2651;DHT22;1335;48.180;16.342;2022-07-04T00:05:11;20.30;99.90
2651;DHT22;1335;48.180;16.342;2022-07-04T00:07:41;20.30;99.90
2651;DHT22;1335;48.180;16.342;2022-07-04T00:10:11;20.10;99.90
2651;DHT22;1335;48.180;16.342;2022-07-04T00:12:49;20.40;99.90
2651;DHT22;1335;48.180;16.342;2022-07-04T00:15:17;20.20;99.90
2651;DHT22;1335;48.180;16.342;2022-07-04T00:17:54;20.20;99.90
2651;DHT22;1335;48.180;16.342;2022-07-04T00:20:24;19.80;99.90
2651;DHT22;1335;48.180;16.342;2022-07-04T00:22:52;20.10;99.90
2651;DHT22;1335;48.180;16.342;2022-07-04T00:25:21;19.80;99.90
2651;DHT22;1335;48.180;16.342;2022-07-04T00:28:08;20.10;99.90
2651;DHT22;1335;48.180;16.342;2022-07-04T00:30:57;20.10;99.90
2651;DHT22;1335;48.180;16.342;2022-07-04T00:33:26;20.00;99.90
2651;DHT22;1335;48.180;16.342;2022-07-04T00:35:53;19.70;99.90
2651;DHT22;1335;48.180;16.342;2022-07-04T00:38:29;19.60;99.90
2651;DHT22;1335;48.180;16.342;2022-07-04T00:41:00;20.40;99.90
2651;DHT22;1335;48.180;16.342;2022-07-04T00:43:32;20.10;99.90
2651;DHT22;1335;48.180;16.342;2022-07-04T00:46:06;20.30;99.90
2651;DHT22;1335;48.180;16.342;2022-07-04T00:48:48;19.90;99.90
2651;DHT22;1335;48.180;16.342;2022-07-04T00:51:17;19.80;99.90
2651;DHT22;1335;48.180;16.342;2022-07-04T00:53:45;19.80;99.90
2651;DHT22;1335;48.180;16.342;2022-07-04T00:56:24;19.80;99.90
2651;DHT22;1335;48.180;16.342;2022-07-04T00:59:16;20.30;99.90
2651;DHT22;1335;48.180;16.342;2022-07-04T01:01:58;19.50;99.90
2651;DHT22;1335;48.180;16.342;2022-07-04T01:04:25;19.30;99.90
2651;DHT22;1335;48.180;16.342;2022-07-04T01:06:53;19.80;99.90
2651;DHT22;1335;48.180;16.342;2022-07-04T01:09:21;19.60;99.90
2651;DHT22;1335;48.180;16.342;2022-07-04T01:11:49;19.70;99.90
2651;DHT22;1335;48.180;16.342;2022-07-04T01:14:19;19.90;99.90
2651;DHT22;1335;48.180;16.342;2022-07-04T01:16:48;19.90;99.90
2651;DHT22;1335;48.180;16.342;2022-07-04T01:19:16;19.80;99.90
2651;DHT22;1335;48.180;16.342;2022-07-04T01:21:45;18.90;99.90
2651;DHT22;1335;48.180;16.342;2022-07-04T01:24:12;19.60;99.90
2651;DHT22;1335;48.180;16.342;2022-07-04T01:26:40;19.40;99.90
2651;DHT22;1335;48.180;16.342;2022-07-04T01:29:10;19.80;99.90
2651;DHT22;1335;48.180;16.342;2022-07-04T01:31:38;19.20;99.90
2651;DHT22;1335;48.180;16.342;2022-07-04T01:34:07;19.40;99.90
2651;DHT22;1335;48.180;16.342;2022-07-04T01:36:34;19.50;99.90
2651;DHT22;1335;48.180;16.342;2022-07-04T01:39:04;19.00;99.90
2651;DHT22;1335;48.180;16.342;2022-07-04T01:41:33;19.60;99.90
2651;DHT22;1335;48.180;16.342;2022-07-04T01:44:01;19.10;99.90
2651;DHT22;1335;48.180;16.342;2022-07-04T01:46:30;18.70;99.90
2651;DHT22;1335;48.180;16.342;2022-07-04T01:48:57;19.50;99.90
2651;DHT22;1335;48.180;16.342;2022-07-04T01:51:24;19.10;99.90
2651;DHT22;1335;48.180;16.342;2022-07-04T01:53:51;19.40;99.90
2651;DHT22;1335;48.180;16.342;2022-07-04T01:56:22;19.50;99.90
2651;DHT22;1335;48.180;16.342;2022-07-04T01:58:51;19.20;99.90
2651;DHT22;1335;48.180;16.342;2022-07-04T02:01:18;19.30;99.90
2651;DHT22;1335;48.180;16.342;2022-07-04T02:03:58;19.10;99.90
2651;DHT22;1335;48.180;16.342;2022-07-04T02:06:25;19.30;99.90
2651;DHT22;1335;48.180;16.342;2022-07-04T02:08:56;18.90;99.90
2651;DHT22;1335;48.180;16.342;2022-07-04T02:11:43;19.50;99.90
2651;DHT22;1335;48.180;16.342;2022-07-04T02:14:28;19.50;99.90
2651;DHT22;1335;48.180;16.342;2022-07-04T02:16:59;19.00;99.90
2651;DHT22;1335;48.180;16.342;2022-07-04T02:19:26;18.90;99.90
2651;DHT22;1335;48.180;16.342;2022-07-04T02:21:55;19.70;99.90
2651;DHT22;1335;48.180;16.342;2022-07-04T02:24:23;19.00;99.90
2651;DHT22;1335;48.180;16.342;2022-07-04T02:26:53;19.00;99.90
2651;DHT22;1335;48.180;16.342;2022-07-04T02:29:34;19.70;99.90
2651;DHT22;1335;48.180;16.342;2022-07-04T02:32:02;19.30;99.90
2651;DHT22;1335;48.180;16.342;2022-07-04T02:34:29;18.70;99.90
2651;DHT22;1335;48.180;16.342;2022-07-04T02:36:57;19.00;99.90
2651;DHT22;1335;48.180;16.342;2022-07-04T02:39:26;18.90;99.90
2651;DHT22;1335;48.180;16.342;2022-07-04T02:42:02;19.20;99.90
2651;DHT22;1335;48.180;16.342;2022-07-04T02:44:29;19.10;99.90
2651;DHT22;1335;48.180;16.342;2022-07-04T02:46:57;19.20;99.90
2651;DHT22;1335;48.180;16.342;2022-07-04T02:49:27;19.20;99.90
2651;DHT22;1335;48.180;16.342;2022-07-04T02:51:54;19.10;99.90
2651;DHT22;1335;48.180;16.342;2022-07-04T02:54:25;19.10;99.90
2651;DHT22;1335;48.180;16.342;2022-07-04T02:56:52;19.00;99.90
2651;DHT22;1335;48.180;16.342;2022-07-04T02:59:23;19.00;99.90
2651;DHT22;1335;48.180;16.342;2022-07-04T03:01:51;19.50;99.90
2651;DHT22;1335;48.180;16.342;2022-07-04T03:04:19;18.90;99.90
2651;DHT22;1335;48.180;16.342;2022-07-04T03:06:46;19.10;99.90
2651;DHT22;1335;48.180;16.342;2022-07-04T03:09:14;18.40;99.90
2651;DHT22;1335;48.180;16.342;2022-07-04T03:11:42;18.70;99.90
2651;DHT22;1335;48.180;16.342;2022-07-04T03:14:14;18.90;99.90
2651;DHT22;1335;48.180;16.342;2022-07-04T03:16:50;19.40;99.90
2651;DHT22;1335;48.180;16.342;2022-07-04T03:19:19;19.10;99.90
2651;DHT22;1335;48.180;16.342;2022-07-04T03:21:46;19.00;99.90
2651;DHT22;1335;48.180;16.342;2022-07-04T03:24:18;18.60;99.90
2651;DHT22;1335;48.180;16.342;2022-07-04T03:26:45;19.10;99.90
2651;DHT22;1335;48.180;16.342;2022-07-04T03:29:13;19.10;99.90
2651;DHT22;1335;48.180;16.342;2022-07-04T03:31:42;18.70;99.90
2651;DHT22;1335;48.180;16.342;2022-07-04T03:34:10;19.60;99.90
2651;DHT22;1335;48.180;16.342;2022-07-04T03:36:38;19.00;99.90
2651;DHT22;1335;48.180;16.342;2022-07-04T03:39:05;19.40;99.90
2651;DHT22;1335;48.180;16.342;2022-07-04T03:41:32;19.30;99.90
2651;DHT22;1335;48.180;16.342;2022-07-04T03:44:05;19.00;99.90
2651;DHT22;1335;48.180;16.342;2022-07-04T03:46:32;19.10;99.90
2651;DHT22;1335;48.180;16.342;2022-07-04T03:49:02;19.10;99.90
2651;DHT22;1335;48.180;16.342;2022-07-04T03:51:30;19.20;99.90
2651;DHT22;1335;48.180;16.342;2022-07-04T03:53:57;19.10;99.90
2651;DHT22;1335;48.180;16.342;2022-07-04T03:56:24;19.20;99.90
2651;DHT22;1335;48.180;16.342;2022-07-04T03:58:51;20.10;99.90
2651;DHT22;1335;48.180;16.342;2022-07-04T04:01:19;19.20;99.90
2651;DHT22;1335;48.180;16.342;2022-07-04T04:03:49;19.10;99.90
2651;DHT22;1335;48.180;16.342;2022-07-04T04:06:37;19.30;99.90
2651;DHT22;1335;48.180;16.342;2022-07-04T04:09:05;20.30;99.90
2651;DHT22;1335;48.180;16.342;2022-07-04T04:11:33;20.00;99.90
2651;DHT22;1335;48.180;16.342;2022-07-04T04:14:01;19.80;99.90
2651;DHT22;1335;48.180;16.342;2022-07-04T04:16:28;19.70;99.90
2651;DHT22;1335;48.180;16.342;2022-07-04T04:18:57;19.70;99.90
2651;DHT22;1335;48.180;16.342;2022-07-04T04:21:25;19.70;99.90
2651;DHT22;1335;48.180;16.342;2022-07-04T04:24:03;20.10;99.90
2651;DHT22;1335;48.180;16.342;2022-07-04T04:26:34;20.10;99.90
2651;DHT22;1335;48.180;16.342;2022-07-04T04:29:02;20.10;99.90
2651;DHT22;1335;48.180;16.342;2022-07-04T04:31:29;20.60;99.90
2651;DHT22;1335;48.180;16.342;2022-07-04T04:33:57;20.20;99.90
2651;DHT22;1335;48.180;16.342;2022-07-04T04:36:27;21.30;99.90
2651;DHT22;1335;48.180;16.342;2022-07-04T04:38:58;21.10;99.90
2651;DHT22;1335;48.180;16.342;2022-07-04T04:41:26;21.20;99.90
2651;DHT22;1335;48.180;16.342;2022-07-04T04:43:56;22.10;99.90
2651;DHT22;1335;48.180;16.342;2022-07-04T04:46:32;22.80;99.90
2651;DHT22;1335;48.180;16.342;2022-07-04T04:49:00;24.10;99.90
2651;DHT22;1335;48.180;16.342;2022-07-04T04:51:30;23.30;99.90
2651;DHT22;1335;48.180;16.342;2022-07-04T04:54:13;25.10;99.90
2651;DHT22;1335;48.180;16.342;2022-07-04T04:56:41;25.50;99.90
2651;DHT22;1335;48.180;16.342;2022-07-04T04:59:09;27.50;99.90
2651;DHT22;1335;48.180;16.342;2022-07-04T05:01:38;28.10;99.90
2651;DHT22;1335;48.180;16.342;2022-07-04T05:04:06;28.90;99.90
2651;DHT22;1335;48.180;16.342;2022-07-04T05:06:37;27.50;99.90
2651;DHT22;1335;48.180;16.342;2022-07-04T05:09:15;28.40;99.90
2651;DHT22;1335;48.180;16.342;2022-07-04T05:11:43;26.80;99.90
2651;DHT22;1335;48.180;16.342;2022-07-04T05:14:10;28.80;99.90
2651;DHT22;1335;48.180;16.342;2022-07-04T05:16:38;29.20;99.90
2651;DHT22;1335;48.180;16.342;2022-07-04T05:19:05;28.50;99.90
2651;DHT22;1335;48.180;16.342;2022-07-04T05:21:34;27.40;99.90
2651;DHT22;1335;48.180;16.342;2022-07-04T05:24:02;27.80;99.90
2651;DHT22;1335;48.180;16.342;2022-07-04T05:26:31;28.50;99.90
2651;DHT22;1335;48.180;16.342;2022-07-04T05:28:59;28.90;99.90
2651;DHT22;1335;48.180;16.342;2022-07-04T05:31:29;29.10;99.90
2651;DHT22;1335;48.180;16.342;2022-07-04T05:34:00;30.60;99.90
2651;DHT22;1335;48.180;16.342;2022-07-04T05:36:28;31.00;99.90
2651;DHT22;1335;48.180;16.342;2022-07-04T05:39:09;29.70;99.90
2651;DHT22;1335;48.180;16.342;2022-07-04T05:41:52;29.60;99.90
2651;DHT22;1335;48.180;16.342;2022-07-04T05:44:21;29.10;99.90
2651;DHT22;1335;48.180;16.342;2022-07-04T05:47:00;27.80;99.90
2651;DHT22;1335;48.180;16.342;2022-07-04T05:49:32;27.70;99.90
2651;DHT22;1335;48.180;16.342;2022-07-04T05:52:07;26.60;99.90
2651;DHT22;1335;48.180;16.342;2022-07-04T05:54:48;27.30;99.90
2651;DHT22;1335;48.180;16.342;2022-07-04T05:57:18;29.20;99.90
2651;DHT22;1335;48.180;16.342;2022-07-04T05:59:50;31.30;99.90
2651;DHT22;1335;48.180;16.342;2022-07-04T06:02:20;30.20;99.90
2651;DHT22;1335;48.180;16.342;2022-07-04T06:04:50;30.80;99.90
2651;DHT22;1335;48.180;16.342;2022-07-04T06:07:18;30.90;99.90
2651;DHT22;1335;48.180;16.342;2022-07-04T06:09:48;30.70;99.90
2651;DHT22;1335;48.180;16.342;2022-07-04T06:21:35;39.80;99.90
2651;DHT22;1335;48.180;16.342;2022-07-04T06:24:13;36.80;99.90
2651;DHT22;1335;48.180;16.342;2022-07-04T06:26:54;34.50;99.90
2651;DHT22;1335;48.180;16.342;2022-07-04T06:29:31;34.40;99.90
2651;DHT22;1335;48.180;16.342;2022-07-04T06:31:59;32.30;99.90
2651;DHT22;1335;48.180;16.342;2022-07-04T06:34:28;31.20;99.90
2651;DHT22;1335;48.180;16.342;2022-07-04T06:37:17;31.50;99.90
2651;DHT22;1335;48.180;16.342;2022-07-04T06:39:44;30.10;99.90
2651;DHT22;1335;48.180;16.342;2022-07-04T06:42:12;29.70;99.90
2651;DHT22;1335;48.180;16.342;2022-07-04T06:44:40;29.10;99.90
2651;DHT22;1335;48.180;16.342;2022-07-04T06:47:09;28.20;99.90
2651;DHT22;1335;48.180;16.342;2022-07-04T06:49:44;28.80;99.90
2651;DHT22;1335;48.180;16.342;2022-07-04T06:55:01;29.00;99.90
2651;DHT22;1335;48.180;16.342;2022-07-04T06:57:34;31.70;99.90
2651;DHT22;1335;48.180;16.342;2022-07-04T07:00:06;35.60;99.90
2651;DHT22;1335;48.180;16.342;2022-07-04T07:02:48;39.50;99.90
2651;DHT22;1335;48.180;16.342;2022-07-04T07:05:16;39.50;99.90
2651;DHT22;1335;48.180;16.342;2022-07-04T07:08:03;36.70;99.90
2651;DHT22;1335;48.180;16.342;2022-07-04T07:10:37;34.20;99.90
2651;DHT22;1335;48.180;16.342;2022-07-04T07:13:18;34.30;99.90
2651;DHT22;1335;48.180;16.342;2022-07-04T07:15:48;33.80;99.90
2651;DHT22;1335;48.180;16.342;2022-07-04T07:18:22;33.90;99.90
2651;DHT22;1335;48.180;16.342;2022-07-04T07:23:38;32.10;99.90
2651;DHT22;1335;48.180;16.342;2022-07-04T07:26:16;32.50;99.90
2651;DHT22;1335;48.180;16.342;2022-07-04T07:28:44;33.60;99.90
2651;DHT22;1335;48.180;16.342;2022-07-04T07:31:19;33.90;99.90
2651;DHT22;1335;48.180;16.342;2022-07-04T07:33:55;33.40;99.90
2651;DHT22;1335;48.180;16.342;2022-07-04T07:36:37;34.70;99.90
2651;DHT22;1335;48.180;16.342;2022-07-04T07:39:21;36.60;99.90
2651;DHT22;1335;48.180;16.342;2022-07-04T07:45:19;37.10;99.90
2651;DHT22;1335;48.180;16.342;2022-07-04T07:47:47;34.50;99.90
2651;DHT22;1335;48.180;16.342;2022-07-04T07:50:15;31.50;99.90
2651;DHT22;1335;48.180;16.342;2022-07-04T07:52:57;30.50;99.90
2651;DHT22;1335;48.180;16.342;2022-07-04T07:55:39;29.90;99.90
2651;DHT22;1335;48.180;16.342;2022-07-04T07:58:19;29.60;99.90
2651;DHT22;1335;48.180;16.342;2022-07-04T08:01:05;32.50;99.90
2651;DHT22;1335;48.180;16.342;2022-07-04T08:03:39;32.50;99.90
2651;DHT22;1335;48.180;16.342;2022-07-04T08:06:27;30.70;99.90
2651;DHT22;1335;48.180;16.342;2022-07-04T08:09:01;31.50;99.90
2651;DHT22;1335;48.180;16.342;2022-07-04T08:11:41;34.40;99.90
2651;DHT22;1335;48.180;16.342;2022-07-04T08:14:09;36.40;99.90
2651;DHT22;1335;48.180;16.342;2022-07-04T08:17:10;37.00;99.90
2651;DHT22;1335;48.180;16.342;2022-07-04T08:19:45;39.10;99.90
2651;DHT22;1335;48.180;16.342;2022-07-04T08:22:22;40.40;99.90
2651;DHT22;1335;48.180;16.342;2022-07-04T08:24:50;39.70;99.90
2651;DHT22;1335;48.180;16.342;2022-07-04T08:27:18;38.70;99.90
2651;DHT22;1335;48.180;16.342;2022-07-04T08:29:56;38.40;99.90
2651;DHT22;1335;48.180;16.342;2022-07-04T08:32:33;37.60;99.90
2651;DHT22;1335;48.180;16.342;2022-07-04T08:35:07;35.90;99.90
2651;DHT22;1335;48.180;16.342;2022-07-04T08:37:37;34.70;99.90
2651;DHT22;1335;48.180;16.342;2022-07-04T08:40:09;34.40;99.90
2651;DHT22;1335;48.180;16.342;2022-07-04T08:42:48;33.40;99.90
2651;DHT22;1335;48.180;16.342;2022-07-04T08:45:48;32.50;99.90
2651;DHT22;1335;48.180;16.342;2022-07-04T08:48:38;32.20;99.90
2651;DHT22;1335;48.180;16.342;2022-07-04T08:51:42;31.40;99.90
2651;DHT22;1335;48.180;16.342;2022-07-04T08:54:31;31.20;99.90
2651;DHT22;1335;48.180;16.342;2022-07-04T08:57:17;30.70;99.90
2651;DHT22;1335;48.180;16.342;2022-07-04T09:00:07;30.60;99.90
2651;DHT22;1335;48.180;16.342;2022-07-04T09:02:34;31.00;99.90
2651;DHT22;1335;48.180;16.342;2022-07-04T09:05:18;29.80;99.90
2651;DHT22;1335;48.180;16.342;2022-07-04T09:07:48;30.50;99.90
2651;DHT22;1335;48.180;16.342;2022-07-04T09:10:33;30.50;99.90
2651;DHT22;1335;48.180;16.342;2022-07-04T09:13:23;29.10;99.90
2651;DHT22;1335;48.180;16.342;2022-07-04T09:15:54;29.10;99.90
2651;DHT22;1335;48.180;16.342;2022-07-04T09:18:30;28.80;99.90
2651;DHT22;1335;48.180;16.342;2022-07-04T09:47:29;27.40;99.90
2651;DHT22;1335;48.180;16.342;2022-07-04T09:50:14;27.60;99.90
2651;DHT22;1335;48.180;16.342;2022-07-04T09:53:17;27.40;99.90
2651;DHT22;1335;48.180;16.342;2022-07-04T09:56:04;27.90;99.90
2651;DHT22;1335;48.180;16.342;2022-07-04T10:01:52;28.20;99.90
2651;DHT22;1335;48.180;16.342;2022-07-04T10:33:32;29.40;99.90
2651;DHT22;1335;48.180;16.342;2022-07-04T10:36:27;29.40;99.90
2651;DHT22;1335;48.180;16.342;2022-07-04T10:39:30;29.80;99.90
2651;DHT22;1335;48.180;16.342;2022-07-04T10:42:23;29.50;99.90
2651;DHT22;1335;48.180;16.342;2022-07-04T10:45:08;31.20;99.90
2651;DHT22;1335;48.180;16.342;2022-07-04T10:51:02;36.30;99.90
2651;DHT22;1335;48.180;16.342;2022-07-04T10:56:49;36.90;99.90
2651;DHT22;1335;48.180;16.342;2022-07-04T10:59:26;37.30;99.90
2651;DHT22;1335;48.180;16.342;2022-07-04T11:02:23;39.20;99.90
2651;DHT22;1335;48.180;16.342;2022-07-04T11:05:39;38.80;99.90
2651;DHT22;1335;48.180;16.342;2022-07-04T11:08:31;40.80;99.90
2651;DHT22;1335;48.180;16.342;2022-07-04T11:11:54;39.40;99.90
2651;DHT22;1335;48.180;16.342;2022-07-04T11:14:35;39.90;99.90
2651;DHT22;1335;48.180;16.342;2022-07-04T11:17:10;41.30;99.90
2651;DHT22;1335;48.180;16.342;2022-07-04T11:19:45;41.60;99.90
2651;DHT22;1335;48.180;16.342;2022-07-04T11:22:23;41.60;99.90
2651;DHT22;1335;48.180;16.342;2022-07-04T11:25:34;41.50;99.90
2651;DHT22;1335;48.180;16.342;2022-07-04T11:28:19;41.50;99.90
2651;DHT22;1335;48.180;16.342;2022-07-04T11:31:00;42.90;99.90
2651;DHT22;1335;48.180;16.342;2022-07-04T11:33:36;42.80;99.90
2651;DHT22;1335;48.180;16.342;2022-07-04T11:36:18;41.30;99.90
2651;DHT22;1335;48.180;16.342;2022-07-04T11:39:10;40.20;99.90
2651;DHT22;1335;48.180;16.342;2022-07-04T11:41:55;38.80;99.90
2651;DHT22;1335;48.180;16.342;2022-07-04T11:44:42;38.40;99.90
2651;DHT22;1335;48.180;16.342;2022-07-04T11:47:35;36.80;99.90
2651;DHT22;1335;48.180;16.342;2022-07-04T11:50:17;36.40;99.90
2651;DHT22;1335;48.180;16.342;2022-07-04T11:53:00;36.00;99.90
2651;DHT22;1335;48.180;16.342;2022-07-04T11:55:28;35.90;99.90
2651;DHT22;1335;48.180;16.342;2022-07-04T12:01:44;36.00;99.90
2651;DHT22;1335;48.180;16.342;2022-07-04T12:04:29;36.50;99.90
2651;DHT22;1335;48.180;16.342;2022-07-04T12:07:15;36.90;99.90
2651;DHT22;1335;48.180;16.342;2022-07-04T12:09:51;37.20;99.90
2651;DHT22;1335;48.180;16.342;2022-07-04T12:12:32;37.90;99.90
2651;DHT22;1335;48.180;16.342;2022-07-04T12:15:05;38.10;99.90
2651;DHT22;1335;48.180;16.342;2022-07-04T12:17:54;38.00;99.90
2651;DHT22;1335;48.180;16.342;2022-07-04T12:20:36;37.20;99.90
2651;DHT22;1335;48.180;16.342;2022-07-04T12:23:18;36.80;99.90
2651;DHT22;1335;48.180;16.342;2022-07-04T12:25:48;36.00;99.90
2651;DHT22;1335;48.180;16.342;2022-07-04T12:28:40;36.30;99.90
2651;DHT22;1335;48.180;16.342;2022-07-04T12:31:08;36.90;99.90
2651;DHT22;1335;48.180;16.342;2022-07-04T12:40:16;35.50;99.90
2651;DHT22;1335;48.180;16.342;2022-07-04T12:42:56;35.20;99.90
2651;DHT22;1335;48.180;16.342;2022-07-04T12:45:58;35.20;99.90
2651;DHT22;1335;48.180;16.342;2022-07-04T12:48:41;35.40;99.90
2651;DHT22;1335;48.180;16.342;2022-07-04T12:51:25;35.30;99.90
2651;DHT22;1335;48.180;16.342;2022-07-04T12:53:58;35.80;99.90
2651;DHT22;1335;48.180;16.342;2022-07-04T12:56:43;36.30;99.90
2651;DHT22;1335;48.180;16.342;2022-07-04T12:59:18;35.70;99.90
2651;DHT22;1335;48.180;16.342;2022-07-04T13:01:46;36.50;99.90
2651;DHT22;1335;48.180;16.342;2022-07-04T13:04:25;36.20;99.90
2651;DHT22;1335;48.180;16.342;2022-07-04T13:07:19;37.20;99.90
2651;DHT22;1335;48.180;16.342;2022-07-04T13:10:28;36.50;99.90
2651;DHT22;1335;48.180;16.342;2022-07-04T13:13:05;36.10;99.90
2651;DHT22;1335;48.180;16.342;2022-07-04T13:15:44;35.00;99.90
2651;DHT22;1335;48.180;16.342;2022-07-04T13:18:41;34.70;99.90
2651;DHT22;1335;48.180;16.342;2022-07-04T13:21:18;33.20;99.90
2651;DHT22;1335;48.180;16.342;2022-07-04T13:24:00;33.10;99.90
2651;DHT22;1335;48.180;16.342;2022-07-04T13:29:44;33.20;99.90
2651;DHT22;1335;48.180;16.342;2022-07-04T13:32:38;33.40;99.90
2651;DHT22;1335;48.180;16.342;2022-07-04T13:35:10;33.20;99.90
2651;DHT22;1335;48.180;16.342;2022-07-04T13:37:45;33.90;99.90
2651;DHT22;1335;48.180;16.342;2022-07-04T13:40:17;33.80;99.90
2651;DHT22;1335;48.180;16.342;2022-07-04T13:42:59;33.20;99.90
2651;DHT22;1335;48.180;16.342;2022-07-04T13:49:11;33.20;99.90
2651;DHT22;1335;48.180;16.342;2022-07-04T13:51:58;33.70;99.90
2651;DHT22;1335;48.180;16.342;2022-07-04T13:54:32;32.40;99.90
2651;DHT22;1335;48.180;16.342;2022-07-04T13:57:14;33.40;99.90
2651;DHT22;1335;48.180;16.342;2022-07-04T14:00:17;33.20;99.90
2651;DHT22;1335;48.180;16.342;2022-07-04T14:03:06;33.30;99.90
2651;DHT22;1335;48.180;16.342;2022-07-04T14:15:31;34.70;99.90
2651;DHT22;1335;48.180;16.342;2022-07-04T14:18:02;34.00;99.90
2651;DHT22;1335;48.180;16.342;2022-07-04T14:20:44;34.40;99.90
2651;DHT22;1335;48.180;16.342;2022-07-04T14:23:16;34.50;99.90
2651;DHT22;1335;48.180;16.342;2022-07-04T14:26:00;34.50;99.90
2651;DHT22;1335;48.180;16.342;2022-07-04T14:28:51;32.40;99.90
2651;DHT22;1335;48.180;16.342;2022-07-04T14:31:54;31.80;99.90
2651;DHT22;1335;48.180;16.342;2022-07-04T14:34:43;31.60;99.90
2651;DHT22;1335;48.180;16.342;2022-07-04T14:37:26;29.80;99.90
2651;DHT22;1335;48.180;16.342;2022-07-04T14:40:18;30.30;99.90
2651;DHT22;1335;48.180;16.342;2022-07-04T14:43:14;30.70;99.90
2651;DHT22;1335;48.180;16.342;2022-07-04T14:45:55;30.80;99.90
2651;DHT22;1335;48.180;16.342;2022-07-04T14:58:42;31.30;99.90
2651;DHT22;1335;48.180;16.342;2022-07-04T15:01:24;31.20;99.90
2651;DHT22;1335;48.180;16.342;2022-07-04T15:04:08;31.20;99.90
2651;DHT22;1335;48.180;16.342;2022-07-04T15:06:59;31.20;99.90
2651;DHT22;1335;48.180;16.342;2022-07-04T15:13:05;31.30;99.90
2651;DHT22;1335;48.180;16.342;2022-07-04T15:16:08;31.60;99.90
2651;DHT22;1335;48.180;16.342;2022-07-04T15:18:51;31.40;99.90
2651;DHT22;1335;48.180;16.342;2022-07-04T15:21:36;31.80;99.90
2651;DHT22;1335;48.180;16.342;2022-07-04T15:24:31;31.70;99.90
2651;DHT22;1335;48.180;16.342;2022-07-04T15:27:12;31.00;99.90
2651;DHT22;1335;48.180;16.342;2022-07-04T15:29:54;31.60;99.90
2651;DHT22;1335;48.180;16.342;2022-07-04T21:37:13;22.30;99.90
2651;DHT22;1335;48.180;16.342;2022-07-04T21:39:57;21.80;99.90
2651;DHT22;1335;48.180;16.342;2022-07-04T21:42:42;21.30;99.90
2651;DHT22;1335;48.180;16.342;2022-07-04T21:45:50;21.70;99.90
2651;DHT22;1335;48.180;16.342;2022-07-04T21:48:57;21.60;99.90
2651;DHT22;1335;48.180;16.342;2022-07-04T22:11:51;20.90;99.90
2651;DHT22;1335;48.180;16.342;2022-07-04T22:14:24;21.30;99.90
2651;DHT22;1335;48.180;16.342;2022-07-04T22:23:43;21.60;99.90
2651;DHT22;1335;48.180;16.342;2022-07-04T22:26:26;21.30;99.90
2651;DHT22;1335;48.180;16.342;2022-07-04T22:29:17;21.60;99.90
2651;DHT22;1335;48.180;16.342;2022-07-04T22:31:58;21.60;99.90
2651;DHT22;1335;48.180;16.342;2022-07-04T22:34:42;21.20;99.90
2651;DHT22;1335;48.180;16.342;2022-07-04T22:37:10;21.50;99.90
2651;DHT22;1335;48.180;16.342;2022-07-04T22:39:53;21.40;99.90
2651;DHT22;1335;48.180;16.342;2022-07-04T22:42:35;21.40;99.90
2651;DHT22;1335;48.180;16.342;2022-07-04T22:45:16;21.30;99.90
2651;DHT22;1335;48.180;16.342;2022-07-04T22:48:01;21.20;99.90
2651;DHT22;1335;48.180;16.342;2022-07-04T22:50:46;21.00;99.90
2651;DHT22;1335;48.180;16.342;2022-07-04T22:53:30;22.00;99.90
2651;DHT22;1335;48.180;16.342;2022-07-04T22:56:16;21.50;99.90
2651;DHT22;1335;48.180;16.342;2022-07-04T22:58:44;20.80;99.90
2651;DHT22;1335;48.180;16.342;2022-07-04T23:14:06;21.00;99.90
2651;DHT22;1335;48.180;16.342;2022-07-04T23:16:48;20.80;99.90
2651;DHT22;1335;48.180;16.342;2022-07-04T23:19:18;20.90;99.90
2651;DHT22;1335;48.180;16.342;2022-07-04T23:21:51;20.80;99.90
2651;DHT22;1335;48.180;16.342;2022-07-04T23:24:22;20.00;99.90
2651;DHT22;1335;48.180;16.342;2022-07-04T23:26:50;20.70;99.90
2651;DHT22;1335;48.180;16.342;2022-07-04T23:29:25;20.20;99.90
2651;DHT22;1335;48.180;16.342;2022-07-04T23:32:00;20.60;99.90
2651;DHT22;1335;48.180;16.342;2022-07-04T23:34:43;20.60;99.90
2651;DHT22;1335;48.180;16.342;2022-07-04T23:37:12;20.00;99.90
2651;DHT22;1335;48.180;16.342;2022-07-04T23:39:53;20.10;99.90
2651;DHT22;1335;48.180;16.342;2022-07-04T23:42:27;20.70;99.90
2651;DHT22;1335;48.180;16.342;2022-07-04T23:45:34;20.90;99.90
2651;DHT22;1335;48.180;16.342;2022-07-04T23:48:05;20.20;99.90
2651;DHT22;1335;48.180;16.342;2022-07-04T23:50:36;20.40;99.90
2651;DHT22;1335;48.180;16.342;2022-07-04T23:53:15;20.00;99.90
2651;DHT22;1335;48.180;16.342;2022-07-04T23:55:49;20.40;99.90
2651;DHT22;1335;48.180;16.342;2022-07-04T23:58:28;19.90;99.90
